Time;durP1;ratioP1;P1;durP2;ratioP2;P2;SDS_P1;SDS_P2;PMS_P1;PMS_P2;Temp;Humidity;BMP_temperature;BMP_pressure;BME280_temperature;BME280_humidity;BME280_pressure;Samples;Min_cycle;Max_cycle;Signal;HPM_P1;HPM_P2
2023/02/21 02:16:20;;;;;;;11.23;3.17;;;;;;;2.52;100.00;96258.13;5043647;28;24547;-81
2023/02/21 02:19:02;;;;;;;5.63;2.67;;;;;;;2.30;100.00;96254.34;5048652;28;24434;-81
2023/02/21 02:21:53;;;;;;;2.95;2.40;;;;;;;2.41;100.00;96249.81;5055381;28;24503;-82
2023/02/21 02:24:41;;;;;;;4.78;3.00;;;;;;;2.51;100.00;96247.91;5033584;28;24432;-80
2023/02/21 02:27:42;;;;;;;6.05;3.42;;;;;;;2.60;100.00;96240.88;5041750;28;24470;-81
2023/02/21 02:30:51;;;;;;;9.90;4.15;;;;;;;2.37;100.00;96248.22;5040810;28;24485;-80
2023/02/21 02:34:05;;;;;;;6.20;3.67;;;;;;;2.30;100.00;96244.97;5041999;28;24533;-79
2023/02/21 02:36:40;;;;;;;6.97;3.30;;;;;;;2.29;100.00;96248.38;5049870;28;24443;-80
2023/02/21 02:39:18;;;;;;;3.47;2.90;;;;;;;2.15;100.00;96233.38;5042888;28;24427;-78
2023/02/21 02:41:49;;;;;;;3.53;2.75;;;;;;;1.92;100.00;96233.03;5038849;28;24436;-77
2023/02/21 02:44:24;;;;;;;3.97;3.22;;;;;;;2.00;100.00;96235.41;5047852;28;24431;-79
2023/02/21 02:46:52;;;;;;;3.97;2.70;;;;;;;1.87;100.00;96232.31;5033899;28;24450;-81
2023/02/21 02:49:21;;;;;;;4.70;2.85;;;;;;;1.85;100.00;96222.09;5048489;28;24439;-81
2023/02/21 02:51:51;;;;;;;4.18;2.65;;;;;;;1.87;100.00;96225.47;5040724;28;24436;-81
2023/02/21 02:54:17;;;;;;;5.38;3.03;;;;;;;1.71;100.00;96234.34;5041246;28;24435;-81
2023/02/21 02:56:45;;;;;;;4.90;2.67;;;;;;;1.59;100.00;96229.47;5035142;28;24440;-81
2023/02/21 02:59:16;;;;;;;6.30;2.58;;;;;;;1.79;100.00;96229.91;5041066;28;24443;-81
2023/02/21 03:02:04;;;;;;;5.65;2.72;;;;;;;1.92;100.00;96235.59;5042104;28;24444;-83
2023/02/21 03:04:49;;;;;;;4.32;2.60;;;;;;;2.13;100.00;96224.91;5049130;28;24407;-83
2023/02/21 03:07:26;;;;;;;3.45;2.05;;;;;;;1.83;100.00;96238.34;5045870;28;24562;-82
2023/02/21 03:10:03;;;;;;;3.15;2.10;;;;;;;1.96;100.00;96224.44;5050591;28;24438;-81
2023/02/21 03:12:37;;;;;;;4.60;2.30;;;;;;;1.89;100.00;96222.88;5035034;28;24441;-81
2023/02/21 03:15:09;;;;;;;4.05;2.50;;;;;;;1.85;100.00;96222.09;5035418;28;24845;-81
2023/02/21 03:17:40;;;;;;;4.60;2.67;;;;;;;1.61;100.00;96225.19;5043046;28;24451;-79
2023/02/21 03:20:09;;;;;;;4.32;3.00;;;;;;;1.72;100.00;96227.53;5042368;28;24431;-81
2023/02/21 03:22:38;;;;;;;7.30;2.90;;;;;;;1.45;100.00;96229.75;5041771;28;24509;-81
2023/02/21 03:25:05;;;;;;;3.25;2.30;;;;;;;1.55;100.00;96220.19;5035452;28;24459;-79
2023/02/21 03:27:33;;;;;;;4.32;2.40;;;;;;;1.61;100.00;96220.06;5045465;28;24464;-81
2023/02/21 03:30:04;;;;;;;5.05;2.42;;;;;;;1.49;100.00;96217.78;5043283;28;24434;-80
2023/02/21 03:35:00;;;;;;;3.47;2.47;;;;;;;1.25;100.00;96229.28;5044238;28;24988;-80
2023/02/21 03:37:31;;;;;;;3.65;2.25;;;;;;;1.47;100.00;96227.16;5043466;28;24431;-81
2023/02/21 03:40:00;;;;;;;4.43;2.47;;;;;;;1.63;100.00;96233.63;5041386;28;25072;-81
2023/02/21 03:42:27;;;;;;;3.63;2.33;;;;;;;1.75;100.00;96232.56;5051854;28;24463;-80
2023/02/21 03:44:53;;;;;;;5.00;2.45;;;;;;;1.74;100.00;96228.31;5042656;28;24467;-81
2023/02/21 03:47:20;;;;;;;2.78;1.90;;;;;;;1.83;100.00;96233.25;5042152;28;24454;-81
2023/02/21 03:49:46;;;;;;;3.00;2.13;;;;;;;1.78;100.00;96235.91;5038144;28;24451;-81
2023/02/21 03:52:14;;;;;;;3.97;2.30;;;;;;;1.72;100.00;96230.91;5036272;28;24447;-79
2023/02/21 03:54:41;;;;;;;5.40;2.10;;;;;;;1.57;100.00;96226.97;5039901;28;24443;-80
2023/02/21 03:57:09;;;;;;;2.92;2.30;;;;;;;1.52;100.00;96220.25;5043417;28;24431;-82
2023/02/21 03:59:36;;;;;;;4.72;2.55;;;;;;;1.34;100.00;96226.59;5042396;28;24501;-79
2023/02/21 04:02:02;;;;;;;9.27;2.80;;;;;;;1.08;100.00;96230.47;5044540;28;24794;-81
2023/02/21 04:04:28;;;;;;;5.97;2.70;;;;;;;1.19;100.00;96223.44;5047613;28;24446;-79
2023/02/21 04:06:55;;;;;;;3.72;2.97;;;;;;;1.10;100.00;96220.22;5049468;28;24448;-80
2023/02/21 04:09:22;;;;;;;5.28;3.58;;;;;;;0.94;100.00;96223.03;5043158;28;24462;-81
2023/02/21 04:11:48;;;;;;;7.25;3.45;;;;;;;0.91;100.00;96224.81;5048827;28;24800;-81
2023/02/21 04:14:16;;;;;;;6.00;3.95;;;;;;;1.09;100.00;96224.47;5044641;28;24455;-81
2023/02/21 04:16:43;;;;;;;6.97;4.07;;;;;;;1.31;100.00;96222.38;5049060;28;24444;-80
2023/02/21 04:19:10;;;;;;;10.30;4.32;;;;;;;1.25;100.00;96219.91;5048756;28;24443;-82
2023/02/21 04:21:36;;;;;;;5.10;3.00;;;;;;;0.98;100.00;96217.91;5043660;28;24531;-81
2023/02/21 04:24:03;;;;;;;4.47;3.10;;;;;;;1.01;100.00;96228.88;5034714;28;24435;-82
2023/02/21 04:26:29;;;;;;;3.90;2.83;;;;;;;1.09;100.00;96229.59;5040432;28;24443;-81
2023/02/21 04:28:56;;;;;;;4.68;2.65;;;;;;;1.18;100.00;96229.41;5032512;28;24521;-80
2023/02/21 04:31:24;;;;;;;3.78;2.67;;;;;;;1.32;100.00;96224.03;5051441;28;24515;-81
2023/02/21 04:33:50;;;;;;;6.32;3.33;;;;;;;1.14;100.00;96224.38;5053033;28;24444;-81
2023/02/21 04:36:17;;;;;;;4.07;2.97;;;;;;;1.08;100.00;96227.91;5047232;28;24992;-81
2023/02/21 04:38:43;;;;;;;5.53;2.97;;;;;;;1.22;100.00;96232.72;5041439;28;24500;-80
2023/02/21 04:41:11;;;;;;;6.68;2.88;;;;;;;1.41;100.00;96225.59;5047364;28;24435;-80
2023/02/21 04:43:37;;;;;;;4.03;2.67;;;;;;;1.47;100.00;96229.72;5050933;28;24427;-80
2023/02/21 04:46:04;;;;;;;4.27;2.90;;;;;;;1.51;100.00;96227.06;5052175;28;24436;-80
2023/02/21 04:48:32;;;;;;;3.33;2.65;;;;;;;1.43;100.00;96223.84;5050502;28;24475;-81
2023/02/21 04:50:58;;;;;;;4.65;3.00;;;;;;;1.35;100.00;96223.16;5039694;28;25013;-82
2023/02/21 04:53:25;;;;;;;5.85;3.50;;;;;;;1.43;100.00;96218.72;5038970;28;24790;-81
2023/02/21 04:55:51;;;;;;;6.63;3.40;;;;;;;1.36;100.00;96217.16;5037940;28;24440;-81
2023/02/21 04:58:18;;;;;;;5.47;3.47;;;;;;;1.34;100.00;96208.72;5044799;28;24439;-80
2023/02/21 05:00:44;;;;;;;5.30;2.88;;;;;;;1.20;100.00;96219.19;5043384;28;24442;-82
2023/02/21 05:03:11;;;;;;;5.25;3.45;;;;;;;1.10;100.00;96220.22;5048057;28;24442;-82
2023/02/21 05:05:38;;;;;;;7.10;3.45;;;;;;;1.33;100.00;96210.41;5046038;28;24443;-81
2023/02/21 05:08:05;;;;;;;9.35;3.63;;;;;;;1.25;100.00;96204.63;5041972;28;24472;-81
2023/02/21 05:10:31;;;;;;;4.60;3.35;;;;;;;1.10;100.00;96207.47;5045818;28;24435;-80
2023/02/21 05:12:58;;;;;;;5.57;3.55;;;;;;;1.11;100.00;96204.03;5044836;28;24438;-79
2023/02/21 05:15:24;;;;;;;5.80;3.13;;;;;;;1.06;100.00;96201.56;5051786;28;24435;-81
2023/02/21 05:17:51;;;;;;;7.03;3.40;;;;;;;0.99;100.00;96207.66;5043086;28;24446;-80
2023/02/21 05:20:17;;;;;;;6.10;3.47;;;;;;;1.07;100.00;96210.91;5039976;28;24440;-81
2023/02/21 05:22:48;;;;;;;4.85;3.30;;;;;;;1.13;100.00;96213.34;5048197;28;24444;-81
2023/02/21 05:25:18;;;;;;;5.63;3.83;;;;;;;1.16;100.00;96208.19;5045927;28;24433;-81
2023/02/21 05:27:45;;;;;;;7.72;4.22;;;;;;;1.23;100.00;96210.63;5041080;28;24451;-81
2023/02/21 05:30:13;;;;;;;8.68;4.45;;;;;;;1.19;100.00;96205.59;5044417;28;24519;-80
2023/02/21 05:32:39;;;;;;;6.05;4.10;;;;;;;1.28;100.00;96213.94;5045313;28;24438;-79
2023/02/21 05:35:07;;;;;;;7.30;4.10;;;;;;;1.15;100.00;96219.28;5042912;28;24449;-79
2023/02/21 05:37:33;;;;;;;6.45;4.47;;;;;;;1.00;100.00;96211.88;5041055;28;25011;-78
2023/02/21 05:40:01;;;;;;;7.28;4.40;;;;;;;0.99;100.00;96209.38;5037589;28;24436;-77
2023/02/21 05:42:28;;;;;;;5.90;4.00;;;;;;;1.00;100.00;96218.69;5042127;28;24420;-78
2023/02/21 05:44:54;;;;;;;6.47;3.83;;;;;;;1.01;100.00;96213.59;5046081;28;24442;-78
2023/02/21 05:47:21;;;;;;;6.55;3.88;;;;;;;1.02;100.00;96214.41;5039887;28;24446;-76
2023/02/21 05:49:47;;;;;;;7.90;4.53;;;;;;;1.10;100.00;96215.94;5033237;28;24482;-76
2023/02/21 05:52:16;;;;;;;6.45;3.92;;;;;;;0.99;100.00;96207.66;5035043;28;24435;-76
2023/02/21 05:54:43;;;;;;;7.45;4.38;;;;;;;0.91;100.00;96207.78;5040998;28;24431;-76
2023/02/21 05:57:11;;;;;;;8.55;4.20;;;;;;;0.78;100.00;96216.53;5041427;28;24435;-77
2023/02/21 05:59:38;;;;;;;9.95;4.50;;;;;;;0.89;100.00;96222.31;5035183;28;24435;-76
2023/02/21 06:02:05;;;;;;;7.55;3.63;;;;;;;0.73;100.00;96216.59;5039013;28;24465;-76
2023/02/21 06:04:31;;;;;;;5.15;3.47;;;;;;;0.81;100.00;96218.19;5041237;28;24431;-76
2023/02/21 06:06:57;;;;;;;8.88;3.75;;;;;;;0.86;100.00;96218.97;5037113;28;25020;-76
2023/02/21 06:09:24;;;;;;;6.85;3.83;;;;;;;0.71;100.00;96222.63;5037167;28;25006;-76
2023/02/21 06:11:50;;;;;;;5.40;3.33;;;;;;;0.76;100.00;96227.63;5032751;28;24812;-76
2023/02/21 06:14:20;;;;;;;5.35;3.08;;;;;;;0.71;100.00;96215.81;5038648;28;24434;-75
2023/02/21 06:16:47;;;;;;;5.35;3.15;;;;;;;0.71;100.00;96210.72;5037498;28;24810;-75
2023/02/21 06:19:16;;;;;;;5.90;2.35;;;;;;;0.66;100.00;96215.03;5035172;28;24439;-75
2023/02/21 06:21:43;;;;;;;4.78;2.67;;;;;;;0.68;100.00;96212.47;5034160;28;24446;-76
2023/02/21 06:24:10;;;;;;;5.80;2.78;;;;;;;0.67;100.00;96219.28;5038085;28;24833;-75
2023/02/21 06:26:37;;;;;;;7.05;5.00;;;;;;;0.61;100.00;96224.47;5041326;28;24443;-75
2023/02/21 06:29:04;;;;;;;18.23;8.25;;;;;;;0.43;100.00;96225.59;5038631;28;24455;-77
2023/02/21 06:31:32;;;;;;;22.25;11.18;;;;;;;0.64;100.00;96224.41;5027378;28;24814;-77
2023/02/21 06:33:59;;;;;;;19.60;9.40;;;;;;;0.78;100.00;96225.88;5038289;28;24529;-77
2023/02/21 06:36:28;;;;;;;20.38;10.25;;;;;;;0.78;100.00;96221.66;5032045;28;25016;-77
2023/02/21 06:38:56;;;;;;;31.30;10.73;;;;;;;0.52;100.00;96222.09;5031424;28;24477;-77
2023/02/21 06:41:26;;;;;;;14.77;5.60;;;;;;;0.39;100.00;96215.50;5037246;28;24428;-78
2023/02/21 06:43:53;;;;;;;7.38;3.63;;;;;;;0.40;100.00;96220.53;5034483;28;24442;-78
2023/02/21 06:46:21;;;;;;;4.70;3.03;;;;;;;0.57;100.00;96220.28;5033441;28;24436;-77
2023/02/21 06:48:49;;;;;;;4.60;3.05;;;;;;;0.68;100.00;96215.84;5036736;28;24460;-78
2023/02/21 06:51:16;;;;;;;5.10;3.05;;;;;;;0.81;100.00;96218.19;5030826;28;24443;-75
2023/02/21 06:53:45;;;;;;;4.20;2.83;;;;;;;0.85;100.00;96215.53;5040553;28;24439;-76
2023/02/21 06:56:12;;;;;;;4.80;2.30;;;;;;;0.86;100.00;96211.31;5032358;28;24436;-76
2023/02/21 06:58:38;;;;;;;4.97;2.88;;;;;;;0.78;100.00;96215.69;5036898;28;24805;-75
2023/02/21 07:01:05;;;;;;;3.93;2.30;;;;;;;0.70;100.00;96210.72;5033642;28;24557;-75
2023/02/21 07:03:31;;;;;;;5.78;2.40;;;;;;;0.60;100.00;96207.50;5036926;28;24443;-75
2023/02/21 07:05:59;;;;;;;4.30;2.33;;;;;;;0.67;100.00;96200.59;5026099;28;24440;-76
2023/02/21 07:08:26;;;;;;;3.13;2.23;;;;;;;0.74;100.00;96199.59;5028654;28;24492;-76
2023/02/21 07:10:52;;;;;;;3.85;2.70;;;;;;;0.70;100.00;96200.53;5035243;28;24431;-75
2023/02/21 07:13:19;;;;;;;4.65;2.95;;;;;;;0.96;100.00;96194.94;5031729;28;24435;-76
2023/02/21 07:15:46;;;;;;;4.18;3.00;;;;;;;1.17;100.00;96197.09;5032450;28;24440;-76
2023/02/21 07:18:12;;;;;;;3.80;2.42;;;;;;;1.11;100.00;96196.38;5040646;28;24981;-75
2023/02/21 07:20:39;;;;;;;3.85;2.67;;;;;;;1.25;100.00;96193.56;5037576;28;24439;-76
2023/02/21 07:23:07;;;;;;;4.97;2.78;;;;;;;1.63;100.00;96197.91;5035868;28;24435;-75
2023/02/21 07:25:33;;;;;;;4.15;2.40;;;;;;;1.64;100.00;96197.03;5037311;28;24442;-76
2023/02/21 07:28:00;;;;;;;3.45;2.50;;;;;;;1.90;100.00;96196.47;5040393;28;24439;-76
2023/02/21 07:30:27;;;;;;;5.75;2.63;;;;;;;2.01;100.00;96193.69;5041759;28;24457;-76
2023/02/21 07:32:54;;;;;;;4.75;2.55;;;;;;;2.16;100.00;96190.78;5028368;28;24485;-76
2023/02/21 07:35:20;;;;;;;3.83;2.30;;;;;;;2.57;100.00;96196.63;5041793;28;24623;-76
2023/02/21 07:37:46;;;;;;;7.17;3.07;;;;;;;3.30;100.00;96201.53;5038984;28;24443;-75
2023/02/21 07:40:14;;;;;;;4.37;2.87;;;;;;;3.44;100.00;96196.03;5042074;28;24431;-77
2023/02/21 07:42:42;;;;;;;5.22;3.08;;;;;;;3.53;100.00;96195.81;5045523;28;24461;-75
2023/02/21 07:45:09;;;;;;;6.00;3.80;;;;;;;3.74;100.00;96199.44;5036925;28;24513;-75
2023/02/21 07:47:36;;;;;;;5.65;3.78;;;;;;;3.84;100.00;96200.88;5041180;28;24436;-75
2023/02/21 07:50:02;;;;;;;8.98;4.28;;;;;;;3.81;100.00;96196.66;5045073;28;24455;-75
2023/02/21 07:52:29;;;;;;;3.90;3.10;;;;;;;3.90;100.00;96198.13;5036938;28;24528;-75
2023/02/21 07:54:55;;;;;;;4.13;2.75;;;;;;;4.23;100.00;96200.56;5036048;28;24840;-75
2023/02/21 07:57:23;;;;;;;5.00;3.00;;;;;;;4.58;100.00;96200.28;5039996;28;24991;-76
2023/02/21 07:59:50;;;;;;;4.78;2.60;;;;;;;4.89;100.00;96188.16;5037333;28;24447;-76
2023/02/21 08:02:16;;;;;;;3.67;2.65;;;;;;;5.08;100.00;96191.81;5042265;28;24423;-75
2023/02/21 08:04:43;;;;;;;5.65;3.45;;;;;;;4.78;100.00;96196.22;5035579;28;24986;-75
2023/02/21 08:07:09;;;;;;;8.00;4.45;;;;;;;4.65;100.00;96192.38;5045029;28;24798;-76
2023/02/21 08:09:36;;;;;;;7.95;4.85;;;;;;;4.57;100.00;96193.47;5043627;28;24813;-76
2023/02/21 08:12:03;;;;;;;8.45;5.30;;;;;;;4.59;100.00;96195.97;5036132;28;24443;-76
2023/02/21 08:14:31;;;;;;;11.68;5.65;;;;;;;4.74;100.00;96197.19;5043962;28;24431;-76
2023/02/21 08:16:57;;;;;;;7.68;4.55;;;;;;;4.77;100.00;96203.06;5032677;28;24446;-77
2023/02/21 08:19:24;;;;;;;7.22;4.75;;;;;;;5.09;100.00;96199.44;5044255;28;24806;-77
2023/02/21 08:21:51;;;;;;;6.95;5.13;;;;;;;5.21;100.00;96198.16;5041570;28;24446;-77
2023/02/21 08:24:18;;;;;;;10.68;4.55;;;;;;;5.52;100.00;96197.91;5043980;28;24439;-77
2023/02/21 08:26:45;;;;;;;10.30;4.18;;;;;;;5.42;100.00;96206.84;5040654;28;24435;-76
2023/02/21 08:29:12;;;;;;;8.43;4.88;;;;;;;5.33;100.00;96192.59;5040735;28;24459;-76
2023/02/21 08:31:43;;;;;;;6.35;4.30;;;;;;;5.32;100.00;96201.19;5040469;28;24435;-76
2023/02/21 08:34:09;;;;;;;9.50;4.25;;;;;;;5.35;100.00;96197.69;5040622;28;24454;-75
2023/02/21 08:36:39;;;;;;;4.78;3.35;;;;;;;5.44;100.00;96197.34;5037343;28;25000;-76
2023/02/21 08:39:06;;;;;;;4.85;2.90;;;;;;;5.40;100.00;96195.78;5034171;28;24431;-75
2023/02/21 08:41:37;;;;;;;3.35;2.53;;;;;;;5.69;100.00;96194.75;5035440;28;24436;-77
2023/02/21 08:44:04;;;;;;;8.00;2.75;;;;;;;5.78;100.00;96197.00;5040262;28;24805;-75
2023/02/21 08:46:31;;;;;;;3.95;2.55;;;;;;;6.02;100.00;96197.81;5041139;28;24443;-76
2023/02/21 08:48:59;;;;;;;3.53;2.15;;;;;;;6.51;99.53;96197.66;5026216;28;24432;-76
2023/02/21 08:51:26;;;;;;;4.53;2.72;;;;;;;6.51;99.84;96195.91;5043845;28;24443;-76
2023/02/21 08:53:52;;;;;;;3.90;2.50;;;;;;;6.94;100.00;96201.88;5031913;28;24516;-76
2023/02/21 08:56:19;;;;;;;5.72;2.22;;;;;;;7.38;97.43;96195.72;5031929;28;24797;-75
2023/02/21 08:58:45;;;;;;;5.85;3.10;;;;;;;7.87;97.50;96193.59;5041388;28;25062;-76
2023/02/21 09:01:12;;;;;;;4.80;3.00;;;;;;;8.32;96.05;96193.19;5037910;28;24802;-76
2023/02/21 09:03:39;;;;;;;4.00;2.40;;;;;;;8.60;90.33;96197.94;5037305;28;24435;-77
2023/02/21 09:06:07;;;;;;;5.33;2.60;;;;;;;8.92;86.06;96191.16;5034201;28;20784;-76
2023/02/21 09:08:34;;;;;;;5.55;2.75;;;;;;;8.64;85.56;96196.88;5039970;28;20780;-76
2023/02/21 09:11:01;;;;;;;5.65;2.83;;;;;;;8.51;87.38;96193.19;5038007;28;20787;-76
2023/02/21 09:13:28;;;;;;;4.80;2.72;;;;;;;8.60;86.68;96195.34;5040245;28;24451;-75
2023/02/21 09:15:55;;;;;;;5.07;3.15;;;;;;;8.55;87.74;96201.63;5042739;28;21606;-76
2023/02/21 09:18:22;;;;;;;6.85;3.15;;;;;;;8.41;88.03;96195.38;5041453;28;24825;-76
2023/02/21 09:20:50;;;;;;;5.35;3.40;;;;;;;8.57;87.86;96198.06;5035183;28;25012;-76
2023/02/21 09:23:18;;;;;;;10.40;3.85;;;;;;;8.56;86.75;96195.53;5039729;28;24440;-80
2023/02/21 09:25:45;;;;;;;9.77;3.88;;;;;;;8.63;87.62;96194.34;5034948;28;24530;-76
2023/02/21 09:28:12;;;;;;;8.30;3.20;;;;;;;8.71;86.63;96192.22;5038862;28;24451;-76
2023/02/21 09:30:38;;;;;;;4.68;3.00;;;;;;;8.87;86.75;96190.56;5041773;28;24463;-76
2023/02/21 09:33:05;;;;;;;5.05;2.85;;;;;;;9.01;85.90;96181.28;5042291;28;24968;-77
2023/02/21 09:35:31;;;;;;;3.53;2.78;;;;;;;8.98;85.95;96184.06;5043010;28;20775;-76
2023/02/21 09:37:59;;;;;;;5.32;2.50;;;;;;;9.22;85.14;96187.97;5039843;28;20792;-78
2023/02/21 09:40:36;;;;;;;5.82;2.22;;;;;;;9.40;83.63;96188.78;5044568;28;24442;-76
2023/02/21 09:43:05;;;;;;;4.15;1.92;;;;;;;9.49;82.37;96190.03;5032154;28;24809;-78
2023/02/21 09:45:34;;;;;;;4.22;2.20;;;;;;;9.77;82.01;96184.28;5042518;28;24434;-77
2023/02/21 09:48:06;;;;;;;3.08;2.03;;;;;;;9.99;79.66;96189.16;5036542;28;24557;-76
2023/02/21 09:50:39;;;;;;;4.43;2.22;;;;;;;10.10;78.65;96192.81;5042004;28;24450;-77
2023/02/21 09:53:07;;;;;;;5.82;2.90;;;;;;;10.03;77.62;96181.13;5031941;28;24438;-77
2023/02/21 09:55:38;;;;;;;3.95;2.05;;;;;;;10.14;77.05;96189.16;5034427;28;24439;-77
2023/02/21 09:58:10;;;;;;;3.87;2.50;;;;;;;10.29;76.17;96181.50;5040438;28;24454;-77
2023/02/21 10:00:38;;;;;;;4.05;2.28;;;;;;;10.51;74.55;96184.56;5037587;28;24428;-78
2023/02/21 10:03:20;;;;;;;7.25;2.70;;;;;;;10.60;74.81;96178.84;5047968;28;24445;-78
2023/02/21 10:05:52;;;;;;;5.43;2.47;;;;;;;10.94;72.89;96181.28;5029591;28;24431;-76
2023/02/21 10:08:28;;;;;;;5.55;2.85;;;;;;;11.02;72.25;96179.09;5036207;28;24450;-77
2023/02/21 10:11:02;;;;;;;6.22;2.75;;;;;;;11.21;71.31;96179.69;5035732;28;24546;-77
2023/02/21 10:13:38;;;;;;;7.40;2.50;;;;;;;11.26;69.34;96171.63;5037397;28;24431;-76
2023/02/21 10:16:12;;;;;;;4.13;2.22;;;;;;;11.45;70.13;96176.56;5037195;28;24438;-77
2023/02/21 10:18:44;;;;;;;5.63;2.35;;;;;;;11.31;70.64;96175.66;5032283;28;24443;-76
2023/02/21 10:21:16;;;;;;;2.88;1.95;;;;;;;11.51;68.91;96169.25;5037623;28;24427;-77
2023/02/21 10:23:46;;;;;;;5.17;2.23;;;;;;;11.57;68.57;96168.06;5037894;28;24526;-76
2023/02/21 10:26:18;;;;;;;3.85;2.38;;;;;;;11.77;69.48;96170.28;5040107;28;24458;-77
2023/02/21 10:28:45;;;;;;;6.05;2.63;;;;;;;11.83;67.22;96164.75;5039985;28;24443;-76
2023/02/21 10:31:15;;;;;;;4.35;2.30;;;;;;;11.88;68.27;96171.41;5038065;28;24459;-76
2023/02/21 10:33:42;;;;;;;2.42;1.67;;;;;;;12.07;65.66;96167.56;5041216;28;24435;-76
2023/02/21 10:36:14;;;;;;;4.07;1.75;;;;;;;12.18;65.58;96166.91;5035792;28;24435;-77
2023/02/21 10:38:46;;;;;;;2.45;1.40;;;;;;;12.22;64.93;96163.19;5039014;28;24842;-77
2023/02/21 10:41:15;;;;;;;3.03;1.42;;;;;;;12.11;64.20;96163.03;5040301;28;24991;-78
2023/02/21 10:43:47;;;;;;;4.68;1.60;;;;;;;12.07;64.51;96158.97;5036244;28;24443;-77
2023/02/21 10:46:19;;;;;;;3.65;1.25;;;;;;;12.10;63.08;96166.56;5035745;28;24436;-77
2023/02/21 10:48:50;;;;;;;5.05;1.30;;;;;;;12.20;64.01;96162.47;5040217;28;24436;-77
2023/02/21 10:51:17;;;;;;;3.33;1.30;;;;;;;12.35;63.11;96163.25;5034901;28;24443;-77
2023/02/21 10:53:45;;;;;;;4.15;1.60;;;;;;;12.47;63.29;96166.84;5042305;28;24455;-78
2023/02/21 10:56:26;;;;;;;5.35;1.40;;;;;;;12.54;61.93;96160.31;5031855;28;24969;-77
2023/02/21 10:58:56;;;;;;;2.10;1.20;;;;;;;12.69;60.65;96164.53;5041750;28;24813;-77
2023/02/21 11:01:32;;;;;;;2.67;1.08;;;;;;;12.77;59.43;96157.06;5039858;28;24440;-78
2023/02/21 11:04:01;;;;;;;2.42;1.10;;;;;;;12.73;59.63;96157.34;5039126;28;24809;-80
2023/02/21 11:06:33;;;;;;;1.90;1.10;;;;;;;13.24;59.85;96147.91;5032978;28;24447;-77
2023/02/21 11:09:01;;;;;;;3.67;1.00;;;;;;;12.99;57.24;96150.44;5032650;28;25011;-77
2023/02/21 11:11:38;;;;;;;4.45;1.02;;;;;;;12.93;57.02;96143.88;5043607;28;24454;-77
2023/02/21 11:14:24;;;;;;;2.90;0.95;;;;;;;13.04;57.54;96140.56;5038400;28;24447;-77
2023/02/21 11:17:17;;;;;;;3.40;0.90;;;;;;;12.93;57.75;96133.47;5043657;28;24431;-77
2023/02/21 11:19:48;;;;;;;4.07;1.00;;;;;;;12.90;56.55;96131.06;5042720;28;24428;-77
2023/02/21 11:22:16;;;;;;;3.50;0.85;;;;;;;12.95;57.08;96136.00;5041191;28;24977;-77
2023/02/21 11:24:53;;;;;;;1.95;0.93;;;;;;;12.87;55.76;96127.84;5045182;28;24427;-77
2023/02/21 11:27:21;;;;;;;2.53;0.70;;;;;;;12.87;53.73;96120.03;5042806;28;24468;-77
2023/02/21 11:29:50;;;;;;;1.20;0.60;;;;;;;12.95;54.52;96126.41;5035568;28;24473;-77
2023/02/21 11:32:25;;;;;;;2.30;0.80;;;;;;;12.96;53.69;96117.69;5045019;28;24439;-77
2023/02/21 11:35:01;;;;;;;1.50;0.60;;;;;;;12.92;53.74;96108.41;5040120;28;24430;-77
2023/02/21 11:37:28;;;;;;;1.42;0.80;;;;;;;13.58;54.61;96108.34;5036915;28;24448;-77
2023/02/21 11:39:55;;;;;;;1.02;0.60;;;;;;;13.19;52.06;96100.53;5035836;28;24802;-77
2023/02/21 11:42:29;;;;;;;0.70;0.40;;;;;;;13.02;52.21;96100.84;5041973;28;24435;-77
2023/02/21 11:45:11;;;;;;;2.15;0.70;;;;;;;12.92;52.50;96085.03;5039662;28;24442;-77
2023/02/21 11:47:42;;;;;;;1.73;0.80;;;;;;;13.13;53.90;96090.56;5043010;28;24455;-77
2023/02/21 11:50:13;;;;;;;2.80;0.60;;;;;;;13.09;52.45;96083.91;5040231;28;25011;-77
2023/02/21 11:52:44;;;;;;;0.85;0.50;;;;;;;13.24;57.27;96076.84;5043738;28;24530;-77
2023/02/21 11:55:14;;;;;;;1.30;0.65;;;;;;;14.05;57.15;96081.53;5036124;28;24431;-77
2023/02/21 11:57:50;;;;;;;1.40;0.70;;;;;;;14.07;53.09;96077.06;5044545;28;25016;-77
2023/02/21 12:00:25;;;;;;;1.30;0.40;;;;;;;13.76;50.63;96065.41;5036603;28;24814;-77
2023/02/21 12:03:18;;;;;;;1.70;0.70;;;;;;;13.71;55.46;96064.88;5046103;28;24435;-77
2023/02/21 12:05:55;;;;;;;1.65;0.77;;;;;;;13.52;53.59;96067.97;5031954;28;24440;-77
2023/02/21 12:08:37;;;;;;;1.30;0.60;;;;;;;13.61;53.23;96062.13;5047985;28;24451;-78
2023/02/21 12:11:15;;;;;;;1.27;0.65;;;;;;;13.51;53.71;96053.28;5038161;28;25010;-79
2023/02/21 12:13:53;;;;;;;1.58;0.77;;;;;;;13.41;53.48;96047.06;5044039;28;24844;-79
2023/02/21 12:16:36;;;;;;;1.35;0.60;;;;;;;13.61;56.34;96043.91;5051518;28;24427;-78
2023/02/21 12:19:20;;;;;;;1.50;0.70;;;;;;;13.97;52.69;96040.44;5049988;28;24447;-80
2023/02/21 12:22:10;;;;;;;1.80;0.88;;;;;;;14.43;56.04;96033.66;5041283;28;24785;-78
2023/02/21 12:24:54;;;;;;;1.45;0.70;;;;;;;14.25;51.93;96025.41;5040375;28;24443;-78
2023/02/21 12:27:30;;;;;;;1.05;0.60;;;;;;;14.06;55.13;96031.16;5046625;28;25061;-78
2023/02/21 12:30:17;;;;;;;2.63;0.90;;;;;;;13.83;51.63;96027.59;5047687;28;24485;-78
2023/02/21 12:32:50;;;;;;;2.03;0.88;;;;;;;13.75;51.50;96020.31;5046198;28;24443;-78
2023/02/21 12:36:01;;;;;;;1.30;0.70;;;;;;;13.59;52.36;96013.72;5046732;28;24437;-79
2023/02/21 12:38:35;;;;;;;3.92;0.82;;;;;;;13.59;54.21;96022.34;5038515;28;24534;-78
2023/02/21 12:41:16;;;;;;;1.83;0.80;;;;;;;13.49;53.88;96003.13;5039734;28;24443;-77
2023/02/21 12:43:52;;;;;;;1.60;0.80;;;;;;;13.73;55.59;96005.75;5041162;28;24818;-77
2023/02/21 12:46:28;;;;;;;2.97;0.90;;;;;;;13.74;54.70;95997.84;5040803;28;24455;-77
2023/02/21 12:49:03;;;;;;;1.58;0.90;;;;;;;13.69;53.70;95997.34;5042806;28;24987;-77
2023/02/21 12:51:35;;;;;;;2.70;0.80;;;;;;;13.63;54.36;95992.56;5040496;28;24450;-78
2023/02/21 12:54:05;;;;;;;3.78;1.15;;;;;;;13.69;53.69;95979.13;5039224;28;24434;-79
2023/02/21 12:56:38;;;;;;;1.88;0.90;;;;;;;14.00;55.61;95974.28;5034570;28;24442;-77
2023/02/21 12:59:11;;;;;;;1.42;0.70;;;;;;;13.80;54.49;95980.97;5030264;28;24438;-77
2023/02/21 13:01:44;;;;;;;1.30;0.82;;;;;;;13.74;53.94;95977.00;5038690;28;24999;-77
2023/02/21 13:04:22;;;;;;;1.17;0.70;;;;;;;13.79;53.92;95967.13;5035459;28;24447;-77
2023/02/21 13:06:53;;;;;;;1.80;0.70;;;;;;;13.93;53.37;95955.69;5033994;28;24435;-77
2023/02/21 13:09:30;;;;;;;1.43;0.70;;;;;;;13.79;54.28;95961.91;5042833;28;24808;-77
2023/02/21 13:12:03;;;;;;;1.58;0.80;;;;;;;13.87;52.87;95960.50;5040455;28;25004;-77
2023/02/21 13:14:33;;;;;;;1.50;0.82;;;;;;;13.75;52.49;95947.44;5043246;28;24435;-76
2023/02/21 13:17:01;;;;;;;1.35;0.70;;;;;;;13.71;54.02;95942.56;5038172;28;24435;-76
2023/02/21 13:19:38;;;;;;;2.20;0.80;;;;;;;13.62;53.65;95944.06;5038867;28;24438;-76
2023/02/21 13:22:16;;;;;;;1.48;0.75;;;;;;;13.67;54.12;95935.91;5039777;28;24438;-76
2023/02/21 13:25:06;;;;;;;2.30;0.90;;;;;;;13.68;53.37;95941.03;5042710;28;24827;-76
2023/02/21 13:27:48;;;;;;;0.93;0.60;;;;;;;13.74;54.31;95935.34;5040763;28;24454;-77
2023/02/21 13:30:21;;;;;;;3.30;0.98;;;;;;;13.69;54.68;95929.66;5042327;28;24462;-76
2023/02/21 13:32:55;;;;;;;1.40;0.82;;;;;;;13.70;53.75;95920.09;5040267;28;24443;-76
2023/02/21 13:35:29;;;;;;;2.05;0.93;;;;;;;13.78;53.55;95915.97;5042338;28;24434;-76
2023/02/21 13:37:57;;;;;;;2.25;1.08;;;;;;;13.76;53.95;95912.66;5037776;28;24435;-76
2023/02/21 13:40:31;;;;;;;2.58;0.90;;;;;;;14.03;52.34;95908.97;5042022;28;24438;-76
2023/02/21 13:43:04;;;;;;;1.23;0.70;;;;;;;13.93;54.80;95905.38;5039321;28;24454;-76
2023/02/21 13:45:31;;;;;;;4.43;0.80;;;;;;;13.88;54.22;95899.69;5042373;28;24503;-76
2023/02/21 13:48:20;;;;;;;3.85;0.88;;;;;;;13.83;53.17;95894.84;5035561;28;24969;-76
2023/02/21 13:50:49;;;;;;;1.85;0.80;;;;;;;13.80;55.36;95893.28;5042405;28;24474;-76
2023/02/21 13:53:18;;;;;;;3.25;0.90;;;;;;;14.64;56.02;95890.50;5039874;28;24432;-76
2023/02/21 13:56:13;;;;;;;1.70;0.75;;;;;;;14.93;53.57;95890.84;5035169;28;25004;-77
2023/02/21 13:58:42;;;;;;;1.10;0.80;;;;;;;14.98;54.18;95886.94;5041415;28;24447;-77
2023/02/21 14:01:40;;;;;;;2.03;0.73;;;;;;;14.61;55.82;95882.91;5034410;28;24432;-77
2023/02/21 14:04:59;;;;;;;0.77;0.60;;;;;;;14.26;52.77;95879.41;5036967;28;25064;-77
2023/02/21 14:07:42;;;;;;;3.40;0.90;;;;;;;14.09;54.10;95876.41;5033366;28;24539;-77
2023/02/21 14:10:22;;;;;;;1.73;0.87;;;;;;;14.25;52.97;95872.56;5032959;28;24906;-77